Time;durP1;ratioP1;P1;durP2;ratioP2;P2;SDS_P1;SDS_P2;PMS_P1;PMS_P2;Temp;Humidity;BMP_temperature;BMP_pressure;BME280_temperature;BME280_humidity;BME280_pressure;Samples;Min_cycle;Max_cycle;Signal;HPM_P1;HPM_P2
2021/03/15 00:01:41;;;;;;;7.93;1.40;;;;;;;;;;10193546;28;20045;-64
2021/03/15 00:06:39;;;;;;;3.60;1.27;;;;;;;;;;10232688;28;20482;-62
2021/03/15 00:11:37;;;;;;;1.50;0.73;;;;;;;;;;10237546;28;20419;-61
2021/03/15 00:16:35;;;;;;;5.97;0.82;;;;;;;;;;10231109;28;21088;-62
2021/03/15 00:21:32;;;;;;;6.00;1.60;;;;;;;;;;10240715;28;20492;-62
2021/03/15 00:26:30;;;;;;;4.53;1.50;;;;;;;;;;10232962;28;20069;-62
2021/03/15 00:31:27;;;;;;;3.60;0.70;;;;;;;;;;10230380;28;20038;-62
2021/03/15 00:36:24;;;;;;;2.37;0.87;;;;;;;;;;10242943;28;20042;-62
2021/03/15 00:41:22;;;;;;;3.10;1.03;;;;;;;;;;10249131;28;20045;-61
2021/03/15 00:46:19;;;;;;;2.77;1.10;;;;;;;;;;10252692;28;21010;-65
2021/03/15 00:51:17;;;;;;;4.70;1.93;;;;;;;;;;10276589;28;20141;-61
2021/03/15 00:56:15;;;;;;;14.87;2.93;;;;;;;;;;10265328;28;20073;-62
2021/03/15 01:01:19;;;;;;;0.50;0.43;;;;;;;;;;10251953;28;20029;-62
2021/03/15 01:06:25;;;;;;;5.90;1.33;;;;;;;;;;10237704;28;20029;-61
2021/03/15 01:11:43;;;;;;;4.22;1.13;;;;;;;;;;10245393;28;20034;-61
2021/03/15 01:16:43;;;;;;;2.03;1.08;;;;;;;;;;10255014;28;20038;-63
2021/03/15 01:21:42;;;;;;;;;;;;;;;;;;10253673;28;20398;-62
2021/03/15 01:26:39;;;;;;;6.22;1.35;;;;;;;;;;10226103;28;19918;-62
2021/03/15 01:31:37;;;;;;;5.00;0.63;;;;;;;;;;10252195;28;20064;-63
2021/03/15 01:36:35;;;;;;;14.73;1.50;;;;;;;;;;10263182;28;20512;-65
2021/03/15 01:41:32;;;;;;;9.70;1.15;;;;;;;;;;10250231;28;20042;-63
2021/03/15 01:46:30;;;;;;;3.50;1.20;;;;;;;;;;10242423;28;20041;-61
2021/03/15 01:51:27;;;;;;;3.20;1.20;;;;;;;;;;10257147;28;20022;-65
2021/03/15 01:56:25;;;;;;;6.07;1.30;;;;;;;;;;10244732;28;20054;-60
2021/03/15 02:01:22;;;;;;;5.60;1.03;;;;;;;;;;10241810;28;20110;-63
2021/03/15 02:06:20;;;;;;;8.07;1.10;;;;;;;;;;10253343;28;20065;-64
2021/03/15 02:11:21;;;;;;;9.82;1.10;;;;;;;;;;10252860;28;20044;-62
2021/03/15 02:16:51;;;;;;;2.60;2.28;;;;;;;;;;10251055;28;20127;-62
2021/03/15 02:21:48;;;;;;;;;;;;;;;;;;10257906;28;20068;-62
2021/03/15 02:27:12;;;;;;;9.30;1.97;;;;;;;;;;10259496;28;19966;-62
2021/03/15 02:32:09;;;;;;;7.65;1.42;;;;;;;;;;10253975;28;20500;-62
2021/03/15 02:37:09;;;;;;;1.37;1.03;;;;;;;;;;10244784;28;20041;-62
2021/03/15 02:42:09;;;;;;;1.25;0.93;;;;;;;;;;10261478;28;20044;-62
2021/03/15 02:47:11;;;;;;;3.60;1.40;;;;;;;;;;10249579;28;20034;-63
2021/03/15 02:52:09;;;;;;;7.70;1.35;;;;;;;;;;10257445;28;20132;-62
2021/03/15 02:57:07;;;;;;;6.65;1.33;;;;;;;;;;10261692;28;20030;-62
2021/03/15 03:02:04;;;;;;;2.47;1.08;;;;;;;;;;10243375;28;20053;-63
2021/03/15 03:07:03;;;;;;;0.57;0.57;;;;;;;;;;10245356;28;20049;-61
2021/03/15 03:12:01;;;;;;;3.92;0.90;;;;;;;;;;10247502;28;20519;-63
2021/03/15 03:17:01;;;;;;;2.40;0.57;;;;;;;;;;10235699;28;20518;-64
2021/03/15 03:21:59;;;;;;;2.58;0.88;;;;;;;;;;10259612;28;20038;-62
2021/03/15 03:26:57;;;;;;;4.65;0.57;;;;;;;;;;10263981;28;20072;-61
2021/03/15 03:31:57;;;;;;;4.17;0.90;;;;;;;;;;10254391;28;20053;-63
2021/03/15 03:36:54;;;;;;;1.13;0.60;;;;;;;;;;10257973;28;20042;-60
2021/03/15 03:41:51;;;;;;;1.87;0.70;;;;;;;;;;10250095;28;20034;-59
2021/03/15 03:46:49;;;;;;;1.50;0.57;;;;;;;;;;10260058;28;20033;-60
2021/03/15 03:51:51;;;;;;;0.50;0.50;;;;;;;;;;10247135;28;20177;-59
2021/03/15 03:56:55;;;;;;;0.35;0.30;;;;;;;;;;10251145;28;20129;-60
2021/03/15 04:01:56;;;;;;;4.88;1.02;;;;;;;;;;10248868;28;20038;-61
2021/03/15 04:06:53;;;;;;;4.03;0.80;;;;;;;;;;10240925;28;20036;-61
2021/03/15 04:11:53;;;;;;;0.60;0.50;;;;;;;;;;10273308;28;20045;-62
2021/03/15 04:16:51;;;;;;;3.60;1.10;;;;;;;;;;10245671;28;20031;-62
2021/03/15 04:21:49;;;;;;;4.33;1.33;;;;;;;;;;10257939;28;20049;-59
2021/03/15 04:26:47;;;;;;;3.13;1.00;;;;;;;;;;10236265;28;20034;-60
2021/03/15 04:31:44;;;;;;;2.78;1.40;;;;;;;;;;10260862;28;20056;-61
2021/03/15 04:36:42;;;;;;;3.20;0.83;;;;;;;;;;10260350;28;20053;-62
2021/03/15 04:41:41;;;;;;;2.17;1.13;;;;;;;;;;10253575;28;20042;-60
2021/03/15 04:46:39;;;;;;;6.55;1.08;;;;;;;;;;10254275;28;20038;-63
2021/03/15 04:51:37;;;;;;;9.65;1.60;;;;;;;;;;10260533;28;20042;-65
2021/03/15 04:56:35;;;;;;;1.77;1.45;;;;;;;;;;10264549;28;20050;-61
2021/03/15 05:01:34;;;;;;;5.10;1.23;;;;;;;;;;10255733;28;20491;-60
2021/03/15 05:06:33;;;;;;;7.72;1.73;;;;;;;;;;10228273;28;20037;-62
2021/03/15 05:11:31;;;;;;;1.35;0.75;;;;;;;;;;10239505;28;20492;-60
2021/03/15 05:16:29;;;;;;;;;;;;;;;;;;10248865;28;20129;-58
2021/03/15 05:21:27;;;;;;;4.93;1.10;;;;;;;;;;10235772;28;19923;-61
2021/03/15 05:26:24;;;;;;;2.17;1.05;;;;;;;;;;10243748;28;20041;-59
2021/03/15 05:31:22;;;;;;;3.07;1.00;;;;;;;;;;10237228;28;20029;-60
2021/03/15 05:36:20;;;;;;;1.55;0.98;;;;;;;;;;10227250;28;20495;-64
2021/03/15 05:41:18;;;;;;;7.00;1.20;;;;;;;;;;10245506;28;20026;-63
2021/03/15 05:46:26;;;;;;;6.13;1.13;;;;;;;;;;10237822;28;20424;-64
2021/03/15 05:51:29;;;;;;;4.15;0.70;;;;;;;;;;10251197;28;20570;-62
2021/03/15 05:56:33;;;;;;;10.95;1.65;;;;;;;;;;10234414;28;20033;-63
2021/03/15 06:01:42;;;;;;;10.77;1.73;;;;;;;;;;10247978;28;20529;-62
2021/03/15 06:06:41;;;;;;;7.22;2.83;;;;;;;;;;10229926;28;20045;-62
2021/03/15 06:11:43;;;;;;;7.85;2.65;;;;;;;;;;10226413;28;20385;-63
2021/03/15 06:16:41;;;;;;;7.82;3.45;;;;;;;;;;10234153;28;20901;-60
2021/03/15 06:21:38;;;;;;;16.17;5.63;;;;;;;;;;10228179;28;20041;-60
2021/03/15 06:26:37;;;;;;;31.63;12.27;;;;;;;;;;10222246;28;20117;-63
2021/03/15 06:31:34;;;;;;;32.25;13.50;;;;;;;;;;10225432;28;20030;-65
2021/03/15 06:36:33;;;;;;;20.87;8.10;;;;;;;;;;10230646;28;20504;-62
2021/03/15 06:41:31;;;;;;;12.88;6.00;;;;;;;;;;10242940;28;20038;-63
2021/03/15 06:46:28;;;;;;;12.07;4.77;;;;;;;;;;10244392;28;20026;-62
2021/03/15 06:51:28;;;;;;;12.27;3.60;;;;;;;;;;10241979;28;20037;-63
2021/03/15 06:56:26;;;;;;;11.25;3.15;;;;;;;;;;10224217;28;20049;-63
2021/03/15 07:01:25;;;;;;;12.50;3.20;;;;;;;;;;10228077;28;20037;-63
2021/03/15 07:06:33;;;;;;;10.15;2.30;;;;;;;;;;10216957;23;20040;-68
2021/03/15 07:11:31;;;;;;;11.05;2.08;;;;;;;;;;10108183;28;20059;-65
2021/03/15 07:16:30;;;;;;;15.17;1.73;;;;;;;;;;10114587;28;20542;-62
2021/03/15 07:21:31;;;;;;;10.38;2.15;;;;;;;;;;10091026;29;20610;-61
2021/03/15 07:26:30;;;;;;;7.75;1.55;;;;;;;;;;10089905;28;20054;-60
2021/03/15 07:36:51;;;;;;;8.38;2.42;;;;;;;;;;10277095;23;20767;-64
2021/03/15 07:41:50;;;;;;;6.75;1.30;;;;;;;;;;10262067;28;20100;-64
2021/03/15 07:46:48;;;;;;;8.95;2.35;;;;;;;;;;10262723;28;20030;-64
2021/03/15 07:51:50;;;;;;;8.75;1.38;;;;;;;;;;10269331;28;20096;-64
2021/03/15 07:56:47;;;;;;;4.63;0.95;;;;;;;;;;10263461;28;20042;-65
2021/03/15 08:01:45;;;;;;;9.80;1.80;;;;;;;;;;10261388;28;20030;-63
2021/03/15 08:06:42;;;;;;;4.73;1.37;;;;;;;;;;10261087;28;20030;-64
2021/03/15 08:11:40;;;;;;;5.73;1.70;;;;;;;;;;10259588;28;20448;-64
2021/03/15 08:16:37;;;;;;;8.97;1.50;;;;;;;;;;10260050;28;20083;-65
2021/03/15 08:21:37;;;;;;;12.67;2.00;;;;;;;;;;10259696;28;20143;-63
2021/03/15 08:26:37;;;;;;;12.48;1.98;;;;;;;;;;10263411;28;20186;-64
2021/03/15 08:31:38;;;;;;;15.82;2.67;;;;;;;;;;10258127;28;20038;-64
2021/03/15 08:36:39;;;;;;;15.65;2.40;;;;;;;;;;10263908;28;20408;-64
2021/03/15 08:41:36;;;;;;;15.45;2.88;;;;;;;;;;10263301;28;20029;-64
2021/03/15 08:46:34;;;;;;;19.70;3.57;;;;;;;;;;10261733;28;20513;-64
2021/03/15 08:51:32;;;;;;;16.43;3.20;;;;;;;;;;10262830;28;20042;-64
2021/03/15 08:56:29;;;;;;;11.33;3.00;;;;;;;;;;10261884;28;20053;-65
2021/03/15 09:01:28;;;;;;;17.93;3.03;;;;;;;;;;10262239;28;20057;-64
2021/03/15 09:06:25;;;;;;;;;;;;;;;;;;10246163;28;20412;-64
2021/03/15 09:11:35;;;;;;;13.23;2.72;;;;;;;;;;10264361;28;19917;-65
2021/03/15 09:16:32;;;;;;;15.98;3.00;;;;;;;;;;10262981;28;20701;-65
2021/03/15 09:21:30;;;;;;;25.07;3.97;;;;;;;;;;10261902;28;20394;-66
2021/03/15 09:26:28;;;;;;;20.20;4.30;;;;;;;;;;10261395;28;20749;-65
2021/03/15 09:31:25;;;;;;;13.37;2.67;;;;;;;;;;10263045;28;20665;-66
2021/03/15 09:36:26;;;;;;;16.57;3.00;;;;;;;;;;10261286;28;20037;-66
2021/03/15 09:41:24;;;;;;;17.00;2.85;;;;;;;;;;10259501;28;20030;-66
2021/03/15 09:46:25;;;;;;;16.20;2.70;;;;;;;;;;10261257;28;20160;-66
2021/03/15 09:51:27;;;;;;;19.60;3.90;;;;;;;;;;10260541;28;20117;-66
2021/03/15 09:56:45;;;;;;;14.07;3.28;;;;;;;;;;10260461;28;20045;-66
2021/03/15 10:01:57;;;;;;;16.15;3.67;;;;;;;;;;10260286;28;20034;-66
2021/03/15 10:07:13;;;;;;;22.60;3.97;;;;;;;;;;10260253;28;20033;-66
2021/03/15 10:12:29;;;;;;;13.85;2.58;;;;;;;;;;10258003;28;20041;-66
2021/03/15 10:17:47;;;;;;;19.73;3.35;;;;;;;;;;10241091;28;20030;-67
2021/03/15 10:22:52;;;;;;;39.03;3.55;;;;;;;;;;10271812;28;20508;-67
2021/03/15 10:27:58;;;;;;;19.45;2.55;;;;;;;;;;10251030;28;20034;-66
2021/03/15 10:33:02;;;;;;;21.75;4.20;;;;;;;;;;10258953;28;20034;-67
2021/03/15 10:38:06;;;;;;;14.07;2.97;;;;;;;;;;10234863;28;20037;-67
2021/03/15 10:43:18;;;;;;;23.70;4.13;;;;;;;;;;10258197;28;20177;-67
2021/03/15 10:48:17;;;;;;;21.13;3.55;;;;;;;;;;10253906;28;20092;-67
2021/03/15 10:53:22;;;;;;;14.45;3.67;;;;;;;;;;10256961;28;20069;-67
2021/03/15 10:58:22;;;;;;;25.25;4.18;;;;;;;;;;10240151;28;20052;-68
2021/03/15 11:03:43;;;;;;;24.42;3.53;;;;;;;;;;10227302;28;20066;-67
2021/03/15 11:08:54;;;;;;;20.20;3.50;;;;;;;;;;10234463;28;20034;-67
2021/03/15 11:13:53;;;;;;;14.10;2.92;;;;;;;;;;10247611;28;20060;-67
2021/03/15 11:19:04;;;;;;;26.67;4.43;;;;;;;;;;10252036;28;20037;-68
2021/03/15 11:24:07;;;;;;;33.75;4.32;;;;;;;;;;10240782;28;20034;-67
2021/03/15 11:29:40;;;;;;;12.95;3.05;;;;;;;;;;10244585;28;20516;-68
2021/03/15 11:34:53;;;;;;;28.25;3.90;;;;;;;;;;10249664;28;20124;-68
2021/03/15 11:39:55;;;;;;;19.67;4.20;;;;;;;;;;10242255;28;20087;-67
2021/03/15 11:44:53;;;;;;;25.93;4.63;;;;;;;;;;10248814;28;20096;-67
2021/03/15 11:49:51;;;;;;;19.75;4.03;;;;;;;;;;10245074;28;20280;-67
2021/03/15 11:54:55;;;;;;;22.55;4.63;;;;;;;;;;10256692;28;20124;-68
2021/03/15 12:00:00;;;;;;;25.70;4.20;;;;;;;;;;10226370;28;20046;-67
2021/03/15 12:05:15;;;;;;;15.95;3.25;;;;;;;;;;10243440;28;20037;-68
2021/03/15 12:10:13;;;;;;;16.92;2.85;;;;;;;;;;10250765;28;20124;-67
2021/03/15 12:15:13;;;;;;;21.52;4.60;;;;;;;;;;10217961;28;20041;-68
2021/03/15 12:20:10;;;;;;;28.60;4.80;;;;;;;;;;10230497;28;20573;-67
2021/03/15 12:25:39;;;;;;;20.77;3.22;;;;;;;;;;10227774;28;20320;-67
2021/03/15 12:31:05;;;;;;;20.00;3.17;;;;;;;;;;10229957;28;20033;-68
2021/03/15 12:36:06;;;;;;;35.85;3.80;;;;;;;;;;10222932;28;20512;-67
2021/03/15 12:41:05;;;;;;;17.08;3.70;;;;;;;;;;10249926;28;20034;-68
2021/03/15 12:46:06;;;;;;;19.83;3.20;;;;;;;;;;10240652;28;20607;-68
2021/03/15 12:51:04;;;;;;;12.30;3.17;;;;;;;;;;10238256;28;20030;-67
2021/03/15 12:56:01;;;;;;;13.53;3.63;;;;;;;;;;10237232;28;20727;-66
2021/03/15 13:01:01;;;;;;;17.58;3.72;;;;;;;;;;10229457;28;20448;-66
2021/03/15 13:06:06;;;;;;;25.33;3.97;;;;;;;;;;10231630;28;20113;-66
2021/03/15 13:11:22;;;;;;;13.07;3.70;;;;;;;;;;10237724;28;20041;-69
2021/03/15 13:16:43;;;;;;;25.40;3.50;;;;;;;;;;10245584;28;20038;-69
2021/03/15 13:21:41;;;;;;;12.05;3.50;;;;;;;;;;10231227;28;20042;-70
2021/03/15 13:26:39;;;;;;;18.98;4.60;;;;;;;;;;10248036;28;20031;-67
2021/03/15 13:31:38;;;;;;;15.18;3.08;;;;;;;;;;10252962;28;20400;-68
2021/03/15 13:36:40;;;;;;;10.93;3.22;;;;;;;;;;10233308;28;20042;-68
2021/03/15 13:41:45;;;;;;;16.13;2.88;;;;;;;;;;10237016;28;20041;-66
2021/03/15 13:47:05;;;;;;;4.20;1.48;;;;;;;;;;10247551;28;20030;-68
2021/03/15 13:52:03;;;;;;;11.40;1.60;;;;;;;;;;10232010;28;20042;-67
2021/03/15 13:57:08;;;;;;;8.10;1.35;;;;;;;;;;10236197;28;20054;-67
2021/03/15 14:02:21;;;;;;;3.78;1.38;;;;;;;;;;10228715;28;20452;-67
2021/03/15 14:07:19;;;;;;;11.27;2.53;;;;;;;;;;10233246;28;20033;-66
2021/03/15 14:12:26;;;;;;;5.07;1.38;;;;;;;;;;10236084;28;20099;-68
2021/03/15 14:17:33;;;;;;;7.85;1.40;;;;;;;;;;10236303;28;20056;-68
2021/03/15 14:22:30;;;;;;;2.30;0.60;;;;;;;;;;10227357;28;20068;-68
2021/03/15 14:27:35;;;;;;;2.92;0.90;;;;;;;;;;10226886;28;20022;-66
2021/03/15 14:32:33;;;;;;;;;;;;;;;;;;10242288;28;20087;-69
2021/03/15 14:37:45;;;;;;;4.60;1.02;;;;;;;;;;10234618;28;19917;-65
2021/03/15 14:42:43;;;;;;;6.85;1.25;;;;;;;;;;10251023;28;20700;-68
2021/03/15 14:48:04;;;;;;;17.83;1.88;;;;;;;;;;10246610;28;20637;-66
2021/03/15 14:53:16;;;;;;;5.72;1.52;;;;;;;;;;10240222;28;20202;-67
2021/03/15 14:58:16;;;;;;;5.85;1.42;;;;;;;;;;10237752;28;20041;-66
2021/03/15 15:03:17;;;;;;;6.35;1.27;;;;;;;;;;10236130;28;20034;-67
2021/03/15 15:08:16;;;;;;;4.18;1.20;;;;;;;;;;10226758;28;20093;-67
2021/03/15 15:13:21;;;;;;;4.25;1.20;;;;;;;;;;10244484;28;20038;-66
2021/03/15 15:18:42;;;;;;;1.83;0.93;;;;;;;;;;10233632;28;20025;-69
2021/03/15 15:23:42;;;;;;;5.72;1.83;;;;;;;;;;10230540;28;20038;-68
2021/03/15 15:28:39;;;;;;;13.73;1.47;;;;;;;;;;10226084;28;20056;-68
2021/03/15 15:33:38;;;;;;;10.93;1.80;;;;;;;;;;10238154;28;20038;-68
2021/03/15 15:38:35;;;;;;;;;;;;;;;;;;10238316;28;20101;-69
2021/03/15 15:43:32;;;;;;;14.65;1.73;;;;;;;;;;10237304;28;20328;-67
2021/03/15 15:48:30;;;;;;;17.27;1.77;;;;;;;;;;10249297;28;20045;-67
2021/03/15 15:53:27;;;;;;;11.73;2.37;;;;;;;;;;10222494;28;20433;-70
2021/03/15 15:58:37;;;;;;;6.80;1.38;;;;;;;;;;10239838;28;20501;-67
2021/03/15 16:03:34;;;;;;;5.37;1.00;;;;;;;;;;10241931;28;20934;-67
2021/03/15 16:08:32;;;;;;;4.87;1.03;;;;;;;;;;10228940;28;20157;-69
2021/03/15 16:13:30;;;;;;;5.80;1.53;;;;;;;;;;10239265;28;20125;-67
2021/03/15 16:18:27;;;;;;;1.40;0.60;;;;;;;;;;10255341;28;20052;-68
2021/03/15 16:23:24;;;;;;;11.43;1.87;;;;;;;;;;10242177;28;20339;-67
2021/03/15 16:28:22;;;;;;;11.30;1.90;;;;;;;;;;10243468;28;20037;-67
2021/03/15 16:33:20;;;;;;;10.23;1.37;;;;;;;;;;10255565;28;20053;-70
2021/03/15 16:38:17;;;;;;;4.60;1.80;;;;;;;;;;10263492;28;20300;-67
2021/03/15 16:43:15;;;;;;;4.87;1.07;;;;;;;;;;10257596;28;20034;-68
2021/03/15 16:48:12;;;;;;;7.83;1.20;;;;;;;;;;10266052;28;20096;-67
2021/03/15 16:53:10;;;;;;;4.33;0.97;;;;;;;;;;10250373;28;20499;-68
2021/03/15 16:58:07;;;;;;;2.87;0.87;;;;;;;;;;10243183;28;20049;-67
2021/03/15 17:03:05;;;;;;;3.37;1.13;;;;;;;;;;10232242;28;20521;-68
2021/03/15 17:08:03;;;;;;;5.00;0.90;;;;;;;;;;10251186;28;20113;-69
2021/03/15 17:13:01;;;;;;;1.65;0.75;;;;;;;;;;10234949;28;20091;-70
2021/03/15 17:17:58;;;;;;;4.47;1.07;;;;;;;;;;10251927;28;20100;-69
2021/03/15 17:22:56;;;;;;;3.87;0.70;;;;;;;;;;10257145;28;20030;-68
2021/03/15 17:27:56;;;;;;;5.50;0.67;;;;;;;;;;10243445;28;20030;-68
2021/03/15 17:32:57;;;;;;;4.57;1.67;;;;;;;;;;10248020;28;20099;-69
2021/03/15 17:37:54;;;;;;;8.57;1.10;;;;;;;;;;10248184;28;20500;-68
2021/03/15 17:42:52;;;;;;;3.53;0.80;;;;;;;;;;10242928;28;20519;-70
2021/03/15 17:47:49;;;;;;;11.77;1.57;;;;;;;;;;10256203;28;20033;-69
2021/03/15 17:52:47;;;;;;;10.63;1.13;;;;;;;;;;10243205;28;20053;-70
2021/03/15 17:57:45;;;;;;;5.32;1.25;;;;;;;;;;10229600;28;20703;-69
2021/03/15 18:02:42;;;;;;;12.20;1.83;;;;;;;;;;10224843;28;20304;-68
2021/03/15 18:07:40;;;;;;;7.43;2.03;;;;;;;;;;10234747;28;20052;-70
2021/03/15 18:12:38;;;;;;;5.53;2.50;;;;;;;;;;10230153;28;21501;-68
2021/03/15 18:17:45;;;;;;;9.32;1.40;;;;;;;;;;10214196;28;20026;-69
2021/03/15 18:22:43;;;;;;;18.50;3.10;;;;;;;;;;10220909;28;20026;-68
2021/03/15 18:27:41;;;;;;;6.35;1.60;;;;;;;;;;10226039;28;20519;-66
2021/03/15 18:32:40;;;;;;;7.65;1.38;;;;;;;;;;10233823;28;20034;-67
2021/03/15 18:37:37;;;;;;;;;;;;;;;;;;10222248;28;20039;-67
2021/03/15 18:42:35;;;;;;;9.27;1.80;;;;;;;;;;10228949;28;20397;-67
2021/03/15 18:47:33;;;;;;;5.60;1.35;;;;;;;;;;10228094;28;20273;-67
2021/03/15 18:52:31;;;;;;;12.20;1.70;;;;;;;;;;10225241;28;20038;-67
2021/03/15 18:57:28;;;;;;;8.00;1.20;;;;;;;;;;10223649;28;20014;-67
2021/03/15 19:02:26;;;;;;;12.83;2.10;;;;;;;;;;10230597;28;20027;-67
2021/03/15 19:07:24;;;;;;;9.43;1.98;;;;;;;;;;10219159;28;20056;-67
2021/03/15 19:12:22;;;;;;;10.43;2.00;;;;;;;;;;10237372;28;20177;-67
2021/03/15 19:17:19;;;;;;;12.37;3.30;;;;;;;;;;10243293;28;20440;-67
2021/03/15 19:22:17;;;;;;;14.20;2.90;;;;;;;;;;10239307;28;20037;-66
2021/03/15 19:27:14;;;;;;;8.63;1.50;;;;;;;;;;10236965;28;20785;-67
2021/03/15 19:32:12;;;;;;;4.63;1.77;;;;;;;;;;10227867;28;20041;-67
2021/03/15 19:37:09;;;;;;;11.80;1.90;;;;;;;;;;10217395;23;20042;-61
2021/03/15 19:42:07;;;;;;;10.30;2.70;;;;;;;;;;10187077;28;20038;-63
2021/03/15 19:47:05;;;;;;;11.50;2.53;;;;;;;;;;10172291;28;20750;-64
2021/03/15 19:52:02;;;;;;;10.43;2.77;;;;;;;;;;10180240;28;20497;-66
2021/03/15 19:57:00;;;;;;;16.93;2.80;;;;;;;;;;10180098;28;20077;-56
2021/03/15 20:01:57;;;;;;;14.00;2.00;;;;;;;;;;10183498;28;20046;-62
2021/03/15 20:06:55;;;;;;;14.30;2.70;;;;;;;;;;10183336;28;20108;-57
2021/03/15 20:11:52;;;;;;;17.17;2.37;;;;;;;;;;10197107;23;20050;-67
2021/03/15 20:16:50;;;;;;;14.17;2.60;;;;;;;;;;10184528;28;20104;-67
2021/03/15 20:21:47;;;;;;;14.27;2.93;;;;;;;;;;10188437;28;20042;-66
2021/03/15 20:26:44;;;;;;;13.53;1.97;;;;;;;;;;10187520;28;20398;-66
2021/03/15 20:31:42;;;;;;;19.83;2.67;;;;;;;;;;10187877;28;20039;-66
2021/03/15 20:36:39;;;;;;;20.07;3.23;;;;;;;;;;10172479;28;20567;-64
2021/03/15 20:41:37;;;;;;;10.43;2.57;;;;;;;;;;10173876;28;20038;-64
2021/03/15 20:46:35;;;;;;;20.33;2.37;;;;;;;;;;10179257;28;20180;-65
2021/03/15 20:51:32;;;;;;;16.00;2.88;;;;;;;;;;10176279;28;20050;-65
2021/03/15 20:56:30;;;;;;;12.63;1.97;;;;;;;;;;10174783;28;20501;-67
2021/03/15 21:01:28;;;;;;;9.23;1.70;;;;;;;;;;10171821;28;20401;-66
2021/03/15 21:06:25;;;;;;;17.15;2.83;;;;;;;;;;10181709;28;20038;-67
2021/03/15 21:11:23;;;;;;;13.57;1.87;;;;;;;;;;10155076;28;20680;-66
2021/03/15 21:16:21;;;;;;;13.63;2.75;;;;;;;;;;10187956;28;20046;-67
2021/03/15 21:21:18;;;;;;;10.40;1.53;;;;;;;;;;10179601;28;20042;-67
2021/03/15 21:26:17;;;;;;;8.13;2.37;;;;;;;;;;10196343;28;20042;-66
2021/03/15 21:31:14;;;;;;;6.93;1.30;;;;;;;;;;10191984;28;20038;-67
2021/03/15 21:36:13;;;;;;;7.07;2.07;;;;;;;;;;10186423;28;20042;-67
2021/03/15 21:41:10;;;;;;;4.90;1.23;;;;;;;;;;10194372;28;20038;-67
2021/03/15 21:46:08;;;;;;;2.60;0.60;;;;;;;;;;10198294;28;20755;-66
2021/03/15 21:51:05;;;;;;;11.03;1.27;;;;;;;;;;10186975;28;20800;-67
2021/03/15 21:56:03;;;;;;;14.40;1.70;;;;;;;;;;10182505;28;20042;-66
2021/03/15 22:01:00;;;;;;;4.93;1.37;;;;;;;;;;10202789;28;20489;-66
2021/03/15 22:05:57;;;;;;;3.43;1.00;;;;;;;;;;10186047;28;20046;-66
2021/03/15 22:10:55;;;;;;;7.83;2.13;;;;;;;;;;10161579;28;20397;-67
2021/03/15 22:15:53;;;;;;;6.40;1.97;;;;;;;;;;10193737;28;20030;-67
2021/03/15 22:20:50;;;;;;;8.00;1.43;;;;;;;;;;10195933;28;20034;-66
2021/03/15 22:25:48;;;;;;;3.13;1.10;;;;;;;;;;10198440;28;20114;-66
2021/03/15 22:30:45;;;;;;;7.03;1.00;;;;;;;;;;10187767;28;20077;-66
2021/03/15 22:35:43;;;;;;;5.37;2.27;;;;;;;;;;10168764;28;20038;-67
2021/03/15 22:40:40;;;;;;;7.23;1.63;;;;;;;;;;10178724;28;20390;-66
2021/03/15 22:45:37;;;;;;;6.07;1.27;;;;;;;;;;10199856;28;20424;-66
2021/03/15 22:50:35;;;;;;;6.67;1.30;;;;;;;;;;10194803;28;20264;-67
2021/03/15 22:55:32;;;;;;;9.77;1.47;;;;;;;;;;10183925;28;20138;-67
2021/03/15 23:00:30;;;;;;;9.67;0.60;;;;;;;;;;10173045;28;20034;-67
2021/03/15 23:05:27;;;;;;;11.20;1.03;;;;;;;;;;10179834;28;21195;-66
2021/03/15 23:10:25;;;;;;;8.93;1.33;;;;;;;;;;10171756;28;20039;-66
2021/03/15 23:15:28;;;;;;;6.32;1.50;;;;;;;;;;10182356;28;20449;-67
2021/03/15 23:20:25;;;;;;;9.20;1.85;;;;;;;;;;10181128;28;20548;-66
2021/03/15 23:25:26;;;;;;;9.97;0.83;;;;;;;;;;10171781;28;20073;-66
2021/03/15 23:30:25;;;;;;;9.80;1.60;;;;;;;;;;10181476;28;20409;-66
2021/03/15 23:35:23;;;;;;;8.25;2.05;;;;;;;;;;10151487;28;20073;-66
2021/03/15 23:40:20;;;;;;;3.93;1.37;;;;;;;;;;10185283;28;21092;-65
2021/03/15 23:45:18;;;;;;;5.40;1.67;;;;;;;;;;10197832;28;20042;-65
2021/03/15 23:50:15;;;;;;;10.33;1.70;;;;;;;;;;10188316;28;20047;-66
2021/03/15 23:55:31;;;;;;;13.40;2.45;;;;;;;;;;10179613;28;20046;-66
